Irvington, AL (36544)

5:05 AM CST on February 07, 2016 (GMT -0600)
Driftwood | | Change Station
CLOSE
Current Station
Personal Weather Station
Location: Irvington, AL
Elevation: 89 ft
Nearby Weather Stations

Elev 89 ft 30.45 °N, 88.22 °W | Updated 4 seconds ago

Clear
Clear
34.5 °F
Feels Like 34 °F
N
0.0
Wind Variable Wind from West
Gusts 0.0 mph

Today
High -- | Low -- °F
--% Chance of Precip.
Yesterday
High -- | Low -- °F
Precip. -- in
Pressure 30.27 in
Visibility 10.0 miles
Clouds Clear
Windchill 34 °F
Dew Point 27 °F
Humidity 73%
Rainfall 0.00 in
Snow Depth Not available.
6:40 AM 5:34 PM
Waning Crescent, 2% visible
METAR KBFM 071053Z AUTO 31007KT 10SM CLR 03/M05 A3027 RMK AO2 SLP250 T00281050
Pressure 30.27 in
Visibility 10.0 miles
Clouds Clear
Windchill 34 °F
Dew Point 27 °F
Humidity 73%
Rainfall 0.00 in
Snow Depth Not available.
6:40 AM 5:34 PM
Waning Crescent, 2% visible
METAR KBFM 071053Z AUTO 31007KT 10SM CLR 03/M05 A3027 RMK AO2 SLP250 T00281050

10-Day Weather Forecast

Almanac

Astronomy

Feb. 07, 2016 Rise Set
Actual Time
Civil Twilight
Nautical Twilight
Astronomical Twilight
Moon
Length of Visible Light
Length of Day
Tomorrow will be .
, % of the Moon is Illuminated

Today's Extremes

State Highs State Lows

Community

WunderPhotos

Upload Photos

1,891,170 photos uploaded!

WunderBlog® & News

Nearby

Air Quality

  Air Quality AQ Index Pollutant
Not available.

Snow Depth

Station Depth Elevation

Earthquake Activity

City Distance Mag. Time & Date
Minimum magnitude displayed is 2.5.

Coastal Water Temperatures

Place Temperature

Stations

Nearby Weather Stations

Station Location Temp. Windchill Dew Point Humidity Wind Precip. Elev Updated Type
                   

Watches & Warnings

There are currently no watches in effect.